sensor_id;sensor_type;location;lat;lon;timestamp;pressure;altitude;pressure_sealevel;temperature;humidity
8051;BME280;4068;42.158;24.732;2023-04-06T00:01:12;99449.69;;;3.37;82.18
8051;BME280;4068;42.158;24.732;2023-04-06T00:03:38;99421.38;;;3.10;82.25
8051;BME280;4068;42.158;24.732;2023-04-06T00:06:03;99434.16;;;3.17;82.92
8051;BME280;4068;42.158;24.732;2023-04-06T00:08:29;99445.41;;;3.19;83.02
8051;BME280;4068;42.158;24.732;2023-04-06T00:10:54;99447.34;;;3.15;83.22
8051;BME280;4068;42.158;24.732;2023-04-06T00:13:20;99439.78;;;3.09;83.34
8051;BME280;4068;42.158;24.732;2023-04-06T00:15:46;99427.34;;;2.97;83.59
8051;BME280;4068;42.158;24.732;2023-04-06T00:18:11;99446.28;;;3.02;83.82
8051;BME280;4068;42.158;24.732;2023-04-06T00:20:37;99445.69;;;2.97;84.40
8051;BME280;4068;42.158;24.732;2023-04-06T00:23:03;99428.88;;;2.83;84.55
8051;BME280;4068;42.158;24.732;2023-04-06T00:25:28;99446.13;;;2.87;84.91
8051;BME280;4068;42.158;24.732;2023-04-06T00:27:53;99429.72;;;2.84;84.97
8051;BME280;4068;42.158;24.732;2023-04-06T00:30:19;99433.44;;;2.80;84.44
8051;BME280;4068;42.158;24.732;2023-04-06T00:32:45;99429.09;;;2.79;85.40
8051;BME280;4068;42.158;24.732;2023-04-06T00:35:10;99440.56;;;2.76;85.62
8051;BME280;4068;42.158;24.732;2023-04-06T00:37:36;99423.88;;;2.61;85.64
8051;BME280;4068;42.158;24.732;2023-04-06T00:40:02;99426.94;;;2.69;86.34
8051;BME280;4068;42.158;24.732;2023-04-06T00:42:28;99402.91;;;2.61;86.09
8051;BME280;4068;42.158;24.732;2023-04-06T00:44:54;99419.31;;;2.65;86.34
8051;BME280;4068;42.158;24.732;2023-04-06T00:47:21;99420.09;;;2.67;86.60
8051;BME280;4068;42.158;24.732;2023-04-06T00:49:47;99418.94;;;2.72;86.39
8051;BME280;4068;42.158;24.732;2023-04-06T00:52:13;99423.16;;;2.75;86.21
8051;BME280;4068;42.158;24.732;2023-04-06T00:54:39;99417.16;;;2.73;86.63
8051;BME280;4068;42.158;24.732;2023-04-06T00:57:05;99379.56;;;2.56;86.19
8051;BME280;4068;42.158;24.732;2023-04-06T00:59:31;99397.69;;;2.61;86.66
8051;BME280;4068;42.158;24.732;2023-04-06T01:01:57;99405.22;;;2.67;86.94
8051;BME280;4068;42.158;24.732;2023-04-06T01:04:22;99399.31;;;2.64;86.70
8051;BME280;4068;42.158;24.732;2023-04-06T01:06:49;99408.06;;;2.63;86.59
8051;BME280;4068;42.158;24.732;2023-04-06T01:09:15;99399.34;;;2.62;86.57
8051;BME280;4068;42.158;24.732;2023-04-06T01:11:41;99400.31;;;2.61;86.63
8051;BME280;4068;42.158;24.732;2023-04-06T01:14:06;99392.59;;;2.58;86.68
8051;BME280;4068;42.158;24.732;2023-04-06T01:16:33;99400.59;;;2.55;86.67
8051;BME280;4068;42.158;24.732;2023-04-06T01:18:58;99400.50;;;2.56;86.56
8051;BME280;4068;42.158;24.732;2023-04-06T01:21:24;99391.75;;;2.57;87.05
8051;BME280;4068;42.158;24.732;2023-04-06T01:23:50;99392.97;;;2.50;87.27
8051;BME280;4068;42.158;24.732;2023-04-06T01:26:16;99378.41;;;2.45;87.42
8051;BME280;4068;42.158;24.732;2023-04-06T01:28:41;99349.31;;;2.16;88.62
8051;BME280;4068;42.158;24.732;2023-04-06T01:31:08;99345.91;;;2.14;89.41
8051;BME280;4068;42.158;24.732;2023-04-06T01:33:33;99364.53;;;2.25;89.45
8051;BME280;4068;42.158;24.732;2023-04-06T01:35:59;99380.88;;;2.30;89.25
8051;BME280;4068;42.158;24.732;2023-04-06T01:38:25;99378.31;;;2.29;89.30
8051;BME280;4068;42.158;24.732;2023-04-06T01:40:52;99342.81;;;2.05;89.32
8051;BME280;4068;42.158;24.732;2023-04-06T01:43:17;99378.75;;;2.19;89.97
8051;BME280;4068;42.158;24.732;2023-04-06T01:45:43;99366.78;;;2.15;90.48
8051;BME280;4068;42.158;24.732;2023-04-06T01:48:08;99371.06;;;2.16;90.64
8051;BME280;4068;42.158;24.732;2023-04-06T01:50:34;99369.50;;;2.12;91.18
8051;BME280;4068;42.158;24.732;2023-04-06T01:52:59;99329.94;;;1.83;92.10
8051;BME280;4068;42.158;24.732;2023-04-06T01:55:25;99346.09;;;1.92;91.56
8051;BME280;4068;42.158;24.732;2023-04-06T01:57:51;99330.72;;;1.85;91.55
8051;BME280;4068;42.158;24.732;2023-04-06T02:00:16;99368.03;;;2.06;90.85
8051;BME280;4068;42.158;24.732;2023-04-06T02:02:42;99364.28;;;2.12;91.02
8051;BME280;4068;42.158;24.732;2023-04-06T02:05:08;99352.41;;;2.05;90.56
8051;BME280;4068;42.158;24.732;2023-04-06T02:07:33;99360.91;;;2.10;90.90
8051;BME280;4068;42.158;24.732;2023-04-06T02:09:59;99337.25;;;1.94;90.51
8051;BME280;4068;42.158;24.732;2023-04-06T02:12:24;99353.69;;;2.15;90.58
8051;BME280;4068;42.158;24.732;2023-04-06T02:14:50;99355.53;;;2.13;90.04
8051;BME280;4068;42.158;24.732;2023-04-06T02:17:15;99354.84;;;2.10;90.58
8051;BME280;4068;42.158;24.732;2023-04-06T02:19:41;99320.84;;;1.90;90.27
8051;BME280;4068;42.158;24.732;2023-04-06T02:22:06;99360.34;;;2.03;90.66
8051;BME280;4068;42.158;24.732;2023-04-06T02:24:32;99356.75;;;2.06;90.37
8051;BME280;4068;42.158;24.732;2023-04-06T02:26:58;99362.88;;;2.05;90.86
8051;BME280;4068;42.158;24.732;2023-04-06T02:29:23;99363.19;;;1.99;91.33
8051;BME280;4068;42.158;24.732;2023-04-06T02:31:49;99358.13;;;1.96;91.95
8051;BME280;4068;42.158;24.732;2023-04-06T02:34:15;99345.31;;;1.89;92.16
8051;BME280;4068;42.158;24.732;2023-04-06T02:36:46;99370.41;;;1.94;92.47
8051;BME280;4068;42.158;24.732;2023-04-06T02:39:12;99344.34;;;1.73;93.29
8051;BME280;4068;42.158;24.732;2023-04-06T02:41:38;99333.91;;;1.73;93.16
8051;BME280;4068;42.158;24.732;2023-04-06T02:44:08;99333.56;;;1.62;94.13
8051;BME280;4068;42.158;24.732;2023-04-06T02:46:34;99373.63;;;1.81;94.14
8051;BME280;4068;42.158;24.732;2023-04-06T02:48:59;99378.91;;;1.80;94.71
8051;BME280;4068;42.158;24.732;2023-04-06T02:51:28;99379.13;;;1.75;95.16
8051;BME280;4068;42.158;24.732;2023-04-06T02:53:54;99364.72;;;1.66;95.83
8051;BME280;4068;42.158;24.732;2023-04-06T02:56:19;99356.53;;;1.74;95.84
8051;BME280;4068;42.158;24.732;2023-04-06T02:58:46;99363.56;;;1.72;95.28
8051;BME280;4068;42.158;24.732;2023-04-06T03:01:12;99365.44;;;1.70;95.56
8051;BME280;4068;42.158;24.732;2023-04-06T03:03:37;99372.41;;;1.69;95.12
8051;BME280;4068;42.158;24.732;2023-04-06T03:06:03;99351.09;;;1.60;95.33
8051;BME280;4068;42.158;24.732;2023-04-06T03:08:28;99363.56;;;1.72;95.30
8051;BME280;4068;42.158;24.732;2023-04-06T03:10:54;99326.22;;;1.51;94.93
8051;BME280;4068;42.158;24.732;2023-04-06T03:13:20;99366.03;;;1.75;95.07
8051;BME280;4068;42.158;24.732;2023-04-06T03:15:46;99324.47;;;1.51;95.08
8051;BME280;4068;42.158;24.732;2023-04-06T03:18:11;99369.38;;;1.79;98.23
8051;BME280;4068;42.158;24.732;2023-04-06T03:20:37;99360.50;;;2.00;100.00
8051;BME280;4068;42.158;24.732;2023-04-06T03:23:02;99334.56;;;1.96;100.00
8051;BME280;4068;42.158;24.732;2023-04-06T03:25:28;99372.94;;;2.32;98.47
8051;BME280;4068;42.158;24.732;2023-04-06T03:27:55;99375.13;;;2.41;99.87
8051;BME280;4068;42.158;24.732;2023-04-06T03:30:20;99363.03;;;2.38;93.69
8051;BME280;4068;42.158;24.732;2023-04-06T03:32:46;99373.41;;;2.57;95.68
8051;BME280;4068;42.158;24.732;2023-04-06T03:35:11;99339.00;;;2.30;91.76
8051;BME280;4068;42.158;24.732;2023-04-06T03:37:37;99364.72;;;2.39;93.33
8051;BME280;4068;42.158;24.732;2023-04-06T03:40:03;99369.56;;;2.30;93.55
8051;BME280;4068;42.158;24.732;2023-04-06T03:42:29;99376.19;;;2.37;92.75
8051;BME280;4068;42.158;24.732;2023-04-06T03:44:55;99360.25;;;2.24;93.23
8051;BME280;4068;42.158;24.732;2023-04-06T03:47:20;99375.78;;;2.27;93.11
8051;BME280;4068;42.158;24.732;2023-04-06T03:49:45;99379.63;;;2.20;94.38
8051;BME280;4068;42.158;24.732;2023-04-06T03:52:11;99348.41;;;1.98;94.89
8051;BME280;4068;42.158;24.732;2023-04-06T03:54:36;99368.94;;;2.24;94.70
8051;BME280;4068;42.158;24.732;2023-04-06T03:57:03;99323.31;;;1.94;95.49
8051;BME280;4068;42.158;24.732;2023-04-06T03:59:29;99365.75;;;2.18;96.12
8051;BME280;4068;42.158;24.732;2023-04-06T04:01:54;99334.19;;;2.03;94.97
8051;BME280;4068;42.158;24.732;2023-04-06T04:04:19;99357.06;;;2.17;95.52
8051;BME280;4068;42.158;24.732;2023-04-06T04:06:45;99371.03;;;2.35;96.20
8051;BME280;4068;42.158;24.732;2023-04-06T04:09:10;99374.97;;;2.44;95.77
8051;BME280;4068;42.158;24.732;2023-04-06T04:11:36;99366.13;;;2.47;95.78
8051;BME280;4068;42.158;24.732;2023-04-06T04:14:01;99334.69;;;2.47;94.89
8051;BME280;4068;42.158;24.732;2023-04-06T04:16:27;99364.34;;;2.82;92.75
8051;BME280;4068;42.158;24.732;2023-04-06T04:18:52;99367.88;;;2.81;92.27
8051;BME280;4068;42.158;24.732;2023-04-06T04:21:18;99354.06;;;2.95;91.23
8051;BME280;4068;42.158;24.732;2023-04-06T04:23:43;99357.19;;;3.02;90.50
8051;BME280;4068;42.158;24.732;2023-04-06T04:26:09;99327.91;;;2.93;88.42
8051;BME280;4068;42.158;24.732;2023-04-06T04:28:34;99368.06;;;3.27;88.18
8051;BME280;4068;42.158;24.732;2023-04-06T04:30:59;99364.16;;;3.52;86.79
8051;BME280;4068;42.158;24.732;2023-04-06T04:33:25;99340.59;;;3.35;85.91
8051;BME280;4068;42.158;24.732;2023-04-06T04:35:51;99368.44;;;3.53;85.67
8051;BME280;4068;42.158;24.732;2023-04-06T04:38:16;99367.53;;;3.70;83.63
8051;BME280;4068;42.158;24.732;2023-04-06T04:40:42;99356.38;;;3.83;83.14
8051;BME280;4068;42.158;24.732;2023-04-06T04:43:07;99352.91;;;3.82;82.38
8051;BME280;4068;42.158;24.732;2023-04-06T04:45:32;99321.56;;;3.79;82.21
8051;BME280;4068;42.158;24.732;2023-04-06T04:47:58;99367.44;;;4.04;82.00
8051;BME280;4068;42.158;24.732;2023-04-06T04:50:23;99358.31;;;3.95;81.93
8051;BME280;4068;42.158;24.732;2023-04-06T04:52:49;99365.75;;;4.03;81.72
8051;BME280;4068;42.158;24.732;2023-04-06T04:55:15;99362.53;;;4.13;81.38
8051;BME280;4068;42.158;24.732;2023-04-06T04:57:40;99362.69;;;4.26;81.12
8051;BME280;4068;42.158;24.732;2023-04-06T05:00:06;99357.28;;;4.44;79.48
8051;BME280;4068;42.158;24.732;2023-04-06T05:02:32;99365.56;;;4.52;78.78
8051;BME280;4068;42.158;24.732;2023-04-06T05:04:57;99359.84;;;4.60;77.97
8051;BME280;4068;42.158;24.732;2023-04-06T05:07:23;99332.75;;;4.59;77.55
8051;BME280;4068;42.158;24.732;2023-04-06T05:09:48;99349.75;;;4.68;76.93
8051;BME280;4068;42.158;24.732;2023-04-06T05:12:14;99333.81;;;4.71;76.63
8051;BME280;4068;42.158;24.732;2023-04-06T05:14:39;99348.28;;;4.93;76.45
8051;BME280;4068;42.158;24.732;2023-04-06T05:17:05;99352.13;;;5.01;75.56
8051;BME280;4068;42.158;24.732;2023-04-06T05:19:31;99358.63;;;5.10;75.76
8051;BME280;4068;42.158;24.732;2023-04-06T05:21:56;99350.56;;;5.28;75.49
8051;BME280;4068;42.158;24.732;2023-04-06T05:24:22;99357.94;;;5.35;74.39
8051;BME280;4068;42.158;24.732;2023-04-06T05:26:48;99349.13;;;5.51;73.87
8051;BME280;4068;42.158;24.732;2023-04-06T05:29:13;99355.00;;;5.69;71.90
8051;BME280;4068;42.158;24.732;2023-04-06T05:31:40;99333.22;;;5.52;72.03
8051;BME280;4068;42.158;24.732;2023-04-06T05:34:05;99356.84;;;5.81;70.35
8051;BME280;4068;42.158;24.732;2023-04-06T05:36:31;99353.66;;;5.91;69.38
8051;BME280;4068;42.158;24.732;2023-04-06T05:38:57;99320.34;;;5.90;69.01
8051;BME280;4068;42.158;24.732;2023-04-06T05:41:23;99354.09;;;6.12;67.91
8051;BME280;4068;42.158;24.732;2023-04-06T05:43:49;99319.31;;;6.07;67.64
8051;BME280;4068;42.158;24.732;2023-04-06T05:46:15;99313.97;;;6.21;67.16
8051;BME280;4068;42.158;24.732;2023-04-06T05:48:40;99360.38;;;6.36;66.42
8051;BME280;4068;42.158;24.732;2023-04-06T05:51:06;99341.59;;;6.28;66.58
8051;BME280;4068;42.158;24.732;2023-04-06T05:53:32;99347.19;;;6.36;65.72
8051;BME280;4068;42.158;24.732;2023-04-06T05:56:01;99339.44;;;6.48;65.80
8051;BME280;4068;42.158;24.732;2023-04-06T05:58:27;99333.03;;;6.65;65.90
8051;BME280;4068;42.158;24.732;2023-04-06T06:00:59;99313.41;;;6.56;65.42
8051;BME280;4068;42.158;24.732;2023-04-06T06:03:25;99332.91;;;6.66;64.79
8051;BME280;4068;42.158;24.732;2023-04-06T06:05:50;99330.38;;;6.52;65.66
8051;BME280;4068;42.158;24.732;2023-04-06T06:08:16;99325.22;;;6.50;66.93
8051;BME280;4068;42.158;24.732;2023-04-06T06:10:41;99324.63;;;6.32;66.47
8051;BME280;4068;42.158;24.732;2023-04-06T06:13:07;99313.03;;;6.22;67.41
8051;BME280;4068;42.158;24.732;2023-04-06T06:15:32;99315.06;;;6.04;67.20
8051;BME280;4068;42.158;24.732;2023-04-06T06:17:58;99280.00;;;5.76;67.47
8051;BME280;4068;42.158;24.732;2023-04-06T06:20:23;99311.22;;;5.95;68.41
8051;BME280;4068;42.158;24.732;2023-04-06T06:22:49;99318.19;;;5.96;68.53
8051;BME280;4068;42.158;24.732;2023-04-06T06:25:14;99282.63;;;5.76;68.27
8051;BME280;4068;42.158;24.732;2023-04-06T06:27:40;99303.59;;;6.05;67.89
8051;BME280;4068;42.158;24.732;2023-04-06T06:30:07;99312.44;;;6.04;67.23
8051;BME280;4068;42.158;24.732;2023-04-06T06:32:32;99319.75;;;6.13;67.13
8051;BME280;4068;42.158;24.732;2023-04-06T06:34:58;99307.22;;;6.17;67.19
8051;BME280;4068;42.158;24.732;2023-04-06T06:37:23;99297.97;;;6.24;66.20
8051;BME280;4068;42.158;24.732;2023-04-06T06:39:49;99315.47;;;6.25;67.29
8051;BME280;4068;42.158;24.732;2023-04-06T06:42:14;99301.47;;;6.37;66.02
8051;BME280;4068;42.158;24.732;2023-04-06T06:44:40;99312.47;;;6.44;66.36
8051;BME280;4068;42.158;24.732;2023-04-06T06:47:05;99321.44;;;6.54;65.80
8051;BME280;4068;42.158;24.732;2023-04-06T06:49:31;99317.19;;;6.52;64.74
8051;BME280;4068;42.158;24.732;2023-04-06T06:51:56;99278.47;;;6.27;64.68
8051;BME280;4068;42.158;24.732;2023-04-06T06:54:21;99309.50;;;6.49;65.51
8051;BME280;4068;42.158;24.732;2023-04-06T06:56:47;99275.66;;;6.43;65.21
8051;BME280;4068;42.158;24.732;2023-04-06T06:59:12;99297.94;;;6.51;64.81
8051;BME280;4068;42.158;24.732;2023-04-06T07:01:38;99314.03;;;6.72;64.30
8051;BME280;4068;42.158;24.732;2023-04-06T07:04:03;99307.63;;;6.77;64.83
8051;BME280;4068;42.158;24.732;2023-04-06T07:06:29;99314.69;;;6.89;63.03
8051;BME280;4068;42.158;24.732;2023-04-06T07:08:54;99318.06;;;6.91;63.36
8051;BME280;4068;42.158;24.732;2023-04-06T07:11:20;99308.16;;;6.95;63.62
8051;BME280;4068;42.158;24.732;2023-04-06T07:13:46;99319.63;;;7.06;63.36
8051;BME280;4068;42.158;24.732;2023-04-06T07:16:11;99305.84;;;7.03;62.88
8051;BME280;4068;42.158;24.732;2023-04-06T07:18:37;99314.88;;;7.24;62.43
8051;BME280;4068;42.158;24.732;2023-04-06T07:21:02;99308.84;;;7.35;62.84
8051;BME280;4068;42.158;24.732;2023-04-06T07:23:28;99301.44;;;7.40;62.42
8051;BME280;4068;42.158;24.732;2023-04-06T07:25:53;99303.53;;;7.61;62.52
8051;BME280;4068;42.158;24.732;2023-04-06T07:28:19;99300.13;;;7.59;61.34
8051;BME280;4068;42.158;24.732;2023-04-06T07:30:45;99300.88;;;7.61;60.83
8051;BME280;4068;42.158;24.732;2023-04-06T07:33:11;99304.75;;;7.68;60.85
8051;BME280;4068;42.158;24.732;2023-04-06T07:35:37;99284.91;;;7.38;60.94
8051;BME280;4068;42.158;24.732;2023-04-06T07:38:02;99297.13;;;7.39;61.79
8051;BME280;4068;42.158;24.732;2023-04-06T07:40:28;99291.78;;;7.52;62.02
8051;BME280;4068;42.158;24.732;2023-04-06T07:42:54;99271.13;;;7.46;61.81
8051;BME280;4068;42.158;24.732;2023-04-06T07:45:20;99304.19;;;7.76;61.96
8051;BME280;4068;42.158;24.732;2023-04-06T07:47:46;99314.34;;;7.93;61.70
8051;BME280;4068;42.158;24.732;2023-04-06T07:50:11;99282.06;;;7.90;61.73
8051;BME280;4068;42.158;24.732;2023-04-06T07:52:38;99315.91;;;8.20;61.27
8051;BME280;4068;42.158;24.732;2023-04-06T07:55:04;99312.88;;;8.13;60.22
8051;BME280;4068;42.158;24.732;2023-04-06T07:57:30;99307.06;;;8.21;60.46
8051;BME280;4068;42.158;24.732;2023-04-06T07:59:55;99309.34;;;8.26;60.80
8051;BME280;4068;42.158;24.732;2023-04-06T08:02:21;99304.69;;;8.29;61.01
8051;BME280;4068;42.158;24.732;2023-04-06T08:04:47;99282.91;;;8.26;60.34
8051;BME280;4068;42.158;24.732;2023-04-06T08:07:12;99295.31;;;8.61;60.73
8051;BME280;4068;42.158;24.732;2023-04-06T08:09:38;99302.66;;;8.80;59.96
8051;BME280;4068;42.158;24.732;2023-04-06T08:12:03;99299.41;;;8.88;59.10
8051;BME280;4068;42.158;24.732;2023-04-06T08:14:29;99290.53;;;8.89;58.46
8051;BME280;4068;42.158;24.732;2023-04-06T08:16:54;99286.19;;;8.99;59.08
8051;BME280;4068;42.158;24.732;2023-04-06T08:19:20;99245.22;;;8.93;58.23
8051;BME280;4068;42.158;24.732;2023-04-06T08:21:46;99295.97;;;9.21;58.62
8051;BME280;4068;42.158;24.732;2023-04-06T08:24:13;99255.66;;;9.18;58.12
8051;BME280;4068;42.158;24.732;2023-04-06T08:26:38;99265.16;;;9.20;57.41
8051;BME280;4068;42.158;24.732;2023-04-06T08:29:04;99284.28;;;9.24;56.65
8051;BME280;4068;42.158;24.732;2023-04-06T08:31:33;99292.00;;;9.27;57.54
8051;BME280;4068;42.158;24.732;2023-04-06T08:33:58;99297.03;;;9.41;57.43
8051;BME280;4068;42.158;24.732;2023-04-06T08:36:24;99278.84;;;9.48;55.93
8051;BME280;4068;42.158;24.732;2023-04-06T08:38:49;99293.75;;;9.49;56.31
8051;BME280;4068;42.158;24.732;2023-04-06T08:41:15;99271.16;;;9.45;57.13
8051;BME280;4068;42.158;24.732;2023-04-06T08:43:54;99246.38;;;9.35;57.23
8051;BME280;4068;42.158;24.732;2023-04-06T08:46:21;99274.59;;;9.68;57.31
8051;BME280;4068;42.158;24.732;2023-04-06T08:48:48;99257.25;;;9.75;57.05
8051;BME280;4068;42.158;24.732;2023-04-06T08:51:15;99263.63;;;10.05;55.49
8051;BME280;4068;42.158;24.732;2023-04-06T08:53:40;99253.78;;;9.96;54.99
8051;BME280;4068;42.158;24.732;2023-04-06T08:56:07;99282.53;;;10.12;55.35
8051;BME280;4068;42.158;24.732;2023-04-06T08:58:39;99252.56;;;10.00;55.23
8051;BME280;4068;42.158;24.732;2023-04-06T09:01:11;99262.72;;;10.16;55.43
8051;BME280;4068;42.158;24.732;2023-04-06T09:03:38;99250.00;;;10.10;54.55
8051;BME280;4068;42.158;24.732;2023-04-06T09:06:05;99233.28;;;10.09;54.46
8051;BME280;4068;42.158;24.732;2023-04-06T09:08:33;99261.31;;;10.33;53.62
8051;BME280;4068;42.158;24.732;2023-04-06T09:11:03;99239.81;;;10.26;53.78
8051;BME280;4068;42.158;24.732;2023-04-06T09:13:29;99243.13;;;10.40;53.92
8051;BME280;4068;42.158;24.732;2023-04-06T09:16:02;99245.84;;;10.49;52.08
8051;BME280;4068;42.158;24.732;2023-04-06T09:18:32;99207.25;;;10.35;51.72
8051;BME280;4068;42.158;24.732;2023-04-06T09:21:02;99233.34;;;10.61;52.96
8051;BME280;4068;42.158;24.732;2023-04-06T09:23:28;99241.03;;;10.64;51.72
8051;BME280;4068;42.158;24.732;2023-04-06T09:26:23;99235.97;;;10.82;49.97
8051;BME280;4068;42.158;24.732;2023-04-06T09:28:54;99230.84;;;10.91;50.16
8051;BME280;4068;42.158;24.732;2023-04-06T09:31:23;99220.50;;;10.97;49.02
8051;BME280;4068;42.158;24.732;2023-04-06T09:33:48;99218.44;;;11.01;49.36
8051;BME280;4068;42.158;24.732;2023-04-06T09:36:14;99221.97;;;11.11;49.18
8051;BME280;4068;42.158;24.732;2023-04-06T09:38:58;99192.59;;;11.03;49.61
8051;BME280;4068;42.158;24.732;2023-04-06T09:41:28;99211.25;;;11.22;49.72
8051;BME280;4068;42.158;24.732;2023-04-06T09:44:07;99210.31;;;11.43;50.41
8051;BME280;4068;42.158;24.732;2023-04-06T09:46:41;99218.00;;;11.36;49.74
8051;BME280;4068;42.158;24.732;2023-04-06T09:49:08;99202.19;;;11.35;51.33
8051;BME280;4068;42.158;24.732;2023-04-06T09:51:37;99212.44;;;11.49;50.32
8051;BME280;4068;42.158;24.732;2023-04-06T09:54:03;99207.41;;;11.56;49.85
8051;BME280;4068;42.158;24.732;2023-04-06T09:56:47;99206.16;;;11.50;49.55
8051;BME280;4068;42.158;24.732;2023-04-06T09:59:21;99213.28;;;11.60;50.53
8051;BME280;4068;42.158;24.732;2023-04-06T10:01:51;99203.47;;;11.70;50.58
8051;BME280;4068;42.158;24.732;2023-04-06T10:04:37;99208.41;;;11.65;50.39
8051;BME280;4068;42.158;24.732;2023-04-06T10:07:06;99177.66;;;11.72;49.22
8051;BME280;4068;42.158;24.732;2023-04-06T10:09:34;99201.97;;;11.97;48.82
8051;BME280;4068;42.158;24.732;2023-04-06T10:12:07;99193.72;;;12.00;48.44
8051;BME280;4068;42.158;24.732;2023-04-06T10:14:33;99186.03;;;11.97;49.68
8051;BME280;4068;42.158;24.732;2023-04-06T10:17:06;99184.78;;;12.11;48.43
8051;BME280;4068;42.158;24.732;2023-04-06T10:19:49;99185.16;;;12.25;48.19
8051;BME280;4068;42.158;24.732;2023-04-06T10:22:45;99187.13;;;12.33;47.38
8051;BME280;4068;42.158;24.732;2023-04-06T10:25:32;99179.66;;;12.47;47.81
8051;BME280;4068;42.158;24.732;2023-04-06T10:28:08;99178.31;;;12.33;46.27
8051;BME280;4068;42.158;24.732;2023-04-06T10:30:34;99162.91;;;12.26;47.24
8051;BME280;4068;42.158;24.732;2023-04-06T10:33:01;99164.72;;;12.36;47.62
8051;BME280;4068;42.158;24.732;2023-04-06T10:35:38;99155.84;;;12.55;47.75
8051;BME280;4068;42.158;24.732;2023-04-06T10:38:04;99148.13;;;12.62;47.36
8051;BME280;4068;42.158;24.732;2023-04-06T10:40:30;99150.47;;;12.65;46.80
8051;BME280;4068;42.158;24.732;2023-04-06T10:43:07;99125.34;;;12.49;47.60
8051;BME280;4068;42.158;24.732;2023-04-06T10:45:33;99174.00;;;12.59;47.45
8051;BME280;4068;42.158;24.732;2023-04-06T10:47:59;99140.78;;;12.36;46.44
8051;BME280;4068;42.158;24.732;2023-04-06T10:50:25;99152.66;;;12.51;47.55
8051;BME280;4068;42.158;24.732;2023-04-06T10:53:01;99152.19;;;12.56;46.67
8051;BME280;4068;42.158;24.732;2023-04-06T10:55:28;99150.00;;;12.51;46.24
8051;BME280;4068;42.158;24.732;2023-04-06T10:57:54;99137.25;;;12.45;45.60
8051;BME280;4068;42.158;24.732;2023-04-06T11:00:20;99114.84;;;12.48;45.40
8051;BME280;4068;42.158;24.732;2023-04-06T11:02:45;99132.66;;;12.75;44.71
8051;BME280;4068;42.158;24.732;2023-04-06T11:05:12;99136.78;;;12.87;43.71
8051;BME280;4068;42.158;24.732;2023-04-06T11:07:41;99137.78;;;12.86;44.45
8051;BME280;4068;42.158;24.732;2023-04-06T11:10:07;99110.81;;;12.99;44.39
8051;BME280;4068;42.158;24.732;2023-04-06T11:12:33;99116.72;;;12.93;44.22
8051;BME280;4068;42.158;24.732;2023-04-06T11:15:00;99133.13;;;13.16;42.13
8051;BME280;4068;42.158;24.732;2023-04-06T11:17:31;99116.28;;;12.98;42.26
8051;BME280;4068;42.158;24.732;2023-04-06T11:19:57;99111.25;;;12.94;43.40
8051;BME280;4068;42.158;24.732;2023-04-06T11:22:24;99117.56;;;12.93;43.80
8051;BME280;4068;42.158;24.732;2023-04-06T11:24:50;99110.66;;;13.01;44.48
8051;BME280;4068;42.158;24.732;2023-04-06T11:27:15;99111.78;;;12.98;44.26
8051;BME280;4068;42.158;24.732;2023-04-06T11:29:41;99124.25;;;12.98;43.85
8051;BME280;4068;42.158;24.732;2023-04-06T11:32:07;99112.84;;;13.05;43.39
8051;BME280;4068;42.158;24.732;2023-04-06T11:34:38;99104.88;;;13.05;42.99
8051;BME280;4068;42.158;24.732;2023-04-06T11:37:08;99115.09;;;13.10;42.67
8051;BME280;4068;42.158;24.732;2023-04-06T11:39:46;99117.69;;;13.20;42.69
8051;BME280;4068;42.158;24.732;2023-04-06T11:42:12;99119.59;;;13.27;42.84
8051;BME280;4068;42.158;24.732;2023-04-06T11:44:40;99115.63;;;13.32;42.24
8051;BME280;4068;42.158;24.732;2023-04-06T11:47:09;99111.09;;;13.42;42.33
8051;BME280;4068;42.158;24.732;2023-04-06T11:49:40;99109.25;;;13.24;41.54
8051;BME280;4068;42.158;24.732;2023-04-06T11:52:16;99107.88;;;13.20;43.08
8051;BME280;4068;42.158;24.732;2023-04-06T11:54:42;99094.22;;;13.05;42.56
8051;BME280;4068;42.158;24.732;2023-04-06T11:57:08;99112.03;;;13.05;43.21
8051;BME280;4068;42.158;24.732;2023-04-06T11:59:35;99110.06;;;13.07;42.99
8051;BME280;4068;42.158;24.732;2023-04-06T12:02:01;99108.19;;;13.17;43.01
8051;BME280;4068;42.158;24.732;2023-04-06T12:04:27;99098.66;;;13.15;43.16
8051;BME280;4068;42.158;24.732;2023-04-06T12:06:52;99100.56;;;13.22;42.79
8051;BME280;4068;42.158;24.732;2023-04-06T12:09:18;99073.22;;;13.02;42.41
8051;BME280;4068;42.158;24.732;2023-04-06T12:11:44;99100.09;;;13.37;43.05
8051;BME280;4068;42.158;24.732;2023-04-06T12:14:10;99072.06;;;13.51;42.18
8051;BME280;4068;42.158;24.732;2023-04-06T12:16:36;99083.19;;;13.90;41.60
8051;BME280;4068;42.158;24.732;2023-04-06T12:19:02;99091.75;;;14.28;40.81
8051;BME280;4068;42.158;24.732;2023-04-06T12:21:28;99088.28;;;14.36;40.34
8051;BME280;4068;42.158;24.732;2023-04-06T12:23:56;99081.31;;;14.43;40.53
8051;BME280;4068;42.158;24.732;2023-04-06T12:26:21;99089.97;;;14.72;40.45
8051;BME280;4068;42.158;24.732;2023-04-06T12:28:47;99093.75;;;15.04;39.69
8051;BME280;4068;42.158;24.732;2023-04-06T12:31:20;99076.22;;;15.01;39.44
8051;BME280;4068;42.158;24.732;2023-04-06T12:33:48;99095.06;;;15.08;39.21
8051;BME280;4068;42.158;24.732;2023-04-06T12:36:14;99068.72;;;15.13;38.78
8051;BME280;4068;42.158;24.732;2023-04-06T12:38:41;99084.78;;;15.62;38.43
8051;BME280;4068;42.158;24.732;2023-04-06T12:41:07;99082.28;;;16.02;37.85
8051;BME280;4068;42.158;24.732;2023-04-06T12:43:33;99084.88;;;16.35;37.08
8051;BME280;4068;42.158;24.732;2023-04-06T12:45:58;99069.66;;;16.27;36.67
8051;BME280;4068;42.158;24.732;2023-04-06T12:48:25;99076.66;;;16.45;36.72
8051;BME280;4068;42.158;24.732;2023-04-06T12:50:57;99064.00;;;16.22;36.80
8051;BME280;4068;42.158;24.732;2023-04-06T12:53:23;99083.28;;;16.09;36.44
8051;BME280;4068;42.158;24.732;2023-04-06T12:55:48;99075.78;;;15.80;36.54
8051;BME280;4068;42.158;24.732;2023-04-06T12:58:14;99077.09;;;15.76;37.33
8051;BME280;4068;42.158;24.732;2023-04-06T13:00:40;99081.75;;;16.07;37.27
8051;BME280;4068;42.158;24.732;2023-04-06T13:03:05;99081.75;;;16.07;36.72
8051;BME280;4068;42.158;24.732;2023-04-06T13:05:31;99076.41;;;16.07;36.09
8051;BME280;4068;42.158;24.732;2023-04-06T13:07:56;99068.56;;;16.13;36.29
8051;BME280;4068;42.158;24.732;2023-04-06T13:10:22;99074.91;;;16.12;36.48
8051;BME280;4068;42.158;24.732;2023-04-06T13:12:48;99043.00;;;16.02;35.92
8051;BME280;4068;42.158;24.732;2023-04-06T13:15:13;99071.22;;;16.13;36.42